Time;durP1;ratioP1;P1;durP2;ratioP2;P2;SDS_P1;SDS_P2;PMS_P1;PMS_P2;Temp;Humidity;BMP_temperature;BMP_pressure;BME280_temperature;BME280_humidity;BME280_pressure;Samples;Min_cycle;Max_cycle;Signal;HPM_P1;HPM_P2
2023/06/12 00:00:56;;;;;;;11.55;5.13;;;16.90;99.90;;;;;;4997658;28;20459;-76
2023/06/12 00:03:24;;;;;;;8.35;5.57;;;16.90;99.90;;;;;;4997626;28;20097;-76
2023/06/12 00:05:50;;;;;;;6.70;4.95;;;16.90;99.90;;;;;;5000680;28;20372;-76
2023/06/12 00:08:20;;;;;;;10.70;5.10;;;17.00;99.90;;;;;;4997888;28;20073;-76
2023/06/12 00:10:47;;;;;;;7.45;5.50;;;17.00;99.90;;;;;;4997630;28;20114;-76
2023/06/12 00:13:13;;;;;;;7.97;5.03;;;17.00;99.90;;;;;;4997824;28;20035;-76
2023/06/12 00:15:39;;;;;;;8.73;5.35;;;17.00;99.90;;;;;;4997501;28;20479;-76
2023/06/12 00:18:05;;;;;;;6.05;5.25;;;17.10;99.90;;;;;;4997367;28;20256;-76
2023/06/12 00:20:31;;;;;;;14.98;5.63;;;17.10;99.90;;;;;;4997381;28;20372;-76
2023/06/12 00:22:58;;;;;;;10.68;5.78;;;17.10;99.90;;;;;;4997550;28;20030;-76
2023/06/12 00:25:25;;;;;;;15.10;5.95;;;17.10;99.90;;;;;;4997257;28;20045;-76
2023/06/12 00:27:50;;;;;;;10.93;6.10;;;17.20;99.90;;;;;;4997532;28;20107;-76
2023/06/12 00:30:16;;;;;;;9.25;5.45;;;17.20;99.90;;;;;;4979957;28;20089;-76
2023/06/12 00:32:41;;;;;;;8.65;5.03;;;17.20;99.90;;;;;;4979917;28;20101;-76
2023/06/12 00:35:07;;;;;;;10.10;6.20;;;17.20;99.90;;;;;;4979907;28;20039;-76
2023/06/12 00:37:33;;;;;;;8.27;5.53;;;17.30;99.90;;;;;;4997436;28;20042;-76
2023/06/12 00:39:59;;;;;;;11.52;6.00;;;17.30;99.90;;;;;;4997259;28;20915;-76
2023/06/12 00:42:33;;;;;;;13.13;5.80;;;17.30;99.90;;;;;;4997517;28;20106;-76
2023/06/12 00:44:59;;;;;;;9.48;5.70;;;17.30;99.90;;;;;;4997393;28;20030;-76
2023/06/12 00:47:25;;;;;;;9.50;5.80;;;17.30;99.90;;;;;;4979670;28;20451;-76
2023/06/12 00:49:51;;;;;;;14.75;5.90;;;17.30;99.90;;;;;;4997225;28;20022;-77
2023/06/12 00:52:18;;;;;;;7.90;6.00;;;17.40;99.90;;;;;;4997224;28;20874;-77
2023/06/12 00:54:46;;;;;;;8.98;5.90;;;17.40;99.90;;;;;;4997038;28;20022;-77
2023/06/12 00:57:12;;;;;;;10.80;6.80;;;17.40;99.90;;;;;;4987991;28;20114;-76
2023/06/12 00:59:38;;;;;;;11.18;5.88;;;17.40;99.90;;;;;;5016739;28;20459;-77
2023/06/12 01:02:06;;;;;;;8.77;6.00;;;17.50;99.90;;;;;;5016814;28;20152;-76
2023/06/12 01:04:33;;;;;;;8.45;5.18;;;17.40;99.90;;;;;;5019035;28;20026;-77
2023/06/12 01:07:20;;;;;;;9.68;5.60;;;17.40;99.90;;;;;;5017079;28;20022;-77
2023/06/12 01:09:46;;;;;;;7.40;5.60;;;17.40;99.90;;;;;;5012956;28;20085;-77
2023/06/12 01:12:12;;;;;;;11.75;5.97;;;17.40;99.90;;;;;;5020654;28;20476;-77
2023/06/12 01:14:37;;;;;;;8.00;5.22;;;17.50;99.90;;;;;;5002771;28;20025;-76
2023/06/12 01:17:04;;;;;;;10.00;5.32;;;17.40;99.90;;;;;;5020312;28;20034;-77
2023/06/12 01:19:29;;;;;;;10.32;6.13;;;17.50;99.90;;;;;;5020355;28;20506;-76
2023/06/12 01:22:03;;;;;;;9.27;4.85;;;17.50;99.90;;;;;;5020402;28;20106;-77
2023/06/12 01:25:05;;;;;;;8.48;4.97;;;17.40;99.90;;;;;;5020560;28;20569;-76
2023/06/12 01:27:32;;;;;;;10.20;5.15;;;17.40;99.90;;;;;;5012337;28;20037;-77
2023/06/12 01:30:22;;;;;;;12.65;5.85;;;17.40;99.90;;;;;;5020309;28;20128;-77
2023/06/12 01:32:50;;;;;;;6.55;4.82;;;17.40;99.90;;;;;;5002192;28;20371;-77
2023/06/12 01:35:23;;;;;;;11.23;5.15;;;17.40;99.90;;;;;;5002287;28;20037;-77
2023/06/12 01:37:59;;;;;;;9.40;5.32;;;17.40;99.90;;;;;;5020060;28;20041;-76
2023/06/12 01:40:28;;;;;;;10.43;5.53;;;17.40;99.90;;;;;;5011395;28;20089;-77
2023/06/12 01:42:54;;;;;;;10.30;5.40;;;17.40;99.90;;;;;;5002276;28;20076;-77
2023/06/12 01:45:20;;;;;;;13.30;6.18;;;17.40;99.90;;;;;;5020251;28;20030;-76
2023/06/12 01:47:45;;;;;;;5.63;4.63;;;17.40;99.90;;;;;;5018280;28;20053;-77
2023/06/12 01:50:13;;;;;;;10.20;4.68;;;17.50;99.90;;;;;;5011644;28;20091;-76
2023/06/12 01:52:38;;;;;;;10.98;5.18;;;17.50;99.90;;;;;;5002166;28;20517;-76
2023/06/12 01:55:05;;;;;;;8.48;5.32;;;17.50;99.90;;;;;;5019676;28;20033;-77
2023/06/12 01:57:32;;;;;;;10.80;5.28;;;17.50;99.90;;;;;;5008353;28;20034;-76
2023/06/12 01:59:59;;;;;;;7.53;4.65;;;17.50;99.90;;;;;;4982744;28;20133;-77
2023/06/12 02:02:26;;;;;;;8.23;4.53;;;17.50;99.90;;;;;;4980664;28;20046;-77
2023/06/12 02:04:52;;;;;;;7.20;4.10;;;17.50;99.90;;;;;;4996860;28;20019;-77
2023/06/12 02:07:17;;;;;;;8.20;4.70;;;17.50;99.90;;;;;;4999752;28;20041;-77
2023/06/12 02:09:43;;;;;;;5.20;3.88;;;17.50;99.90;;;;;;4982378;28;20050;-76
2023/06/12 02:12:09;;;;;;;10.38;4.03;;;17.50;99.90;;;;;;4998573;28;20060;-77
2023/06/12 02:14:35;;;;;;;8.23;4.30;;;17.50;99.90;;;;;;4981312;28;20549;-77
2023/06/12 02:17:04;;;;;;;10.70;4.55;;;17.50;99.90;;;;;;4999679;28;20022;-77
2023/06/12 02:19:29;;;;;;;5.90;3.55;;;17.60;99.90;;;;;;4998743;28;20026;-77
2023/06/12 02:21:56;;;;;;;8.80;4.38;;;17.60;99.90;;;;;;4999676;28;20025;-76
2023/06/12 02:24:26;;;;;;;8.63;4.13;;;17.50;99.90;;;;;;4999857;28;20026;-76
2023/06/12 02:26:51;;;;;;;9.60;5.97;;;17.60;99.90;;;;;;4999320;28;20490;-77
2023/06/12 02:29:17;;;;;;;5.40;3.83;;;17.60;99.90;;;;;;4999813;28;20257;-76
2023/06/12 02:31:43;;;;;;;5.30;3.45;;;17.50;99.90;;;;;;4999441;28;20395;-77
2023/06/12 02:34:09;;;;;;;7.65;3.85;;;17.60;99.90;;;;;;4981794;28;20030;-76
2023/06/12 02:36:39;;;;;;;6.90;4.35;;;17.50;99.90;;;;;;4999470;28;20034;-76
2023/06/12 02:39:08;;;;;;;;;;;17.50;99.90;;;;;;4999939;28;20022;-77
2023/06/12 02:41:38;;;;;;;9.80;3.88;;;17.40;99.90;;;;;;4999158;28;19909;-77
2023/06/12 02:44:04;;;;;;;6.53;4.03;;;17.50;99.90;;;;;;4999150;28;20083;-77
2023/06/12 02:46:29;;;;;;;6.90;3.22;;;17.50;99.90;;;;;;4999128;28;20502;-76
2023/06/12 02:48:55;;;;;;;8.23;3.45;;;17.50;99.90;;;;;;4999295;28;20406;-77
2023/06/12 02:51:21;;;;;;;8.98;3.90;;;17.60;99.90;;;;;;4999064;28;20033;-77
2023/06/12 02:53:46;;;;;;;6.68;3.53;;;17.50;99.90;;;;;;4999268;28;20038;-76
2023/06/12 02:56:12;;;;;;;8.07;3.95;;;17.60;99.90;;;;;;4998621;28;20031;-76
2023/06/12 02:58:39;;;;;;;6.07;4.18;;;17.60;99.90;;;;;;4999100;28;20038;-76
2023/06/12 03:01:06;;;;;;;8.52;4.10;;;17.50;99.90;;;;;;4998480;28;20030;-77
2023/06/12 03:03:31;;;;;;;5.50;3.70;;;17.50;99.90;;;;;;4998861;28;20286;-77
2023/06/12 03:05:57;;;;;;;12.85;4.20;;;17.50;99.90;;;;;;4998036;28;20058;-77
2023/06/12 03:08:23;;;;;;;8.23;4.10;;;17.50;99.90;;;;;;4998430;28;20022;-76
2023/06/12 03:10:48;;;;;;;5.13;4.00;;;17.40;99.90;;;;;;4998618;28;20030;-77
2023/06/12 03:13:14;;;;;;;6.65;4.20;;;17.30;99.90;;;;;;4998856;28;20033;-76
2023/06/12 03:15:40;;;;;;;9.07;3.97;;;17.20;99.90;;;;;;4998387;28;20541;-76
2023/06/12 03:18:05;;;;;;;12.18;4.15;;;17.20;99.90;;;;;;4998803;28;20074;-76
2023/06/12 03:20:34;;;;;;;8.70;4.75;;;17.10;99.90;;;;;;4998713;28;20023;-76
2023/06/12 03:23:00;;;;;;;7.68;4.10;;;17.10;99.90;;;;;;4980739;28;20022;-77
2023/06/12 03:25:26;;;;;;;7.07;4.18;;;17.00;99.90;;;;;;4980884;28;20046;-76
2023/06/12 03:27:52;;;;;;;8.88;4.40;;;17.00;99.90;;;;;;4998545;28;20398;-76
2023/06/12 03:30:18;;;;;;;7.78;4.60;;;17.00;99.90;;;;;;4980983;28;20030;-76
2023/06/12 03:32:43;;;;;;;9.07;4.68;;;17.00;99.90;;;;;;4998290;28;20026;-76
2023/06/12 03:35:09;;;;;;;9.18;4.60;;;16.90;99.90;;;;;;4998327;28;20103;-76
2023/06/12 03:37:35;;;;;;;11.68;5.15;;;16.90;99.90;;;;;;4998357;28;20030;-76
2023/06/12 03:40:00;;;;;;;9.63;4.43;;;16.80;99.90;;;;;;4998191;28;20379;-75
2023/06/12 03:42:26;;;;;;;10.48;4.47;;;16.80;99.90;;;;;;4998486;28;20386;-75
2023/06/12 03:44:52;;;;;;;11.38;4.50;;;16.70;99.90;;;;;;4997992;28;20029;-76
2023/06/12 03:47:18;;;;;;;6.18;4.10;;;16.70;99.90;;;;;;4998128;28;20022;-76
2023/06/12 03:49:45;;;;;;;8.50;4.22;;;16.70;99.90;;;;;;4998027;28;20026;-76
2023/06/12 03:52:11;;;;;;;12.38;5.20;;;16.70;99.90;;;;;;4980690;28;20018;-76
2023/06/12 03:54:38;;;;;;;9.68;4.38;;;16.60;99.90;;;;;;4997945;28;20022;-76
2023/06/12 03:57:04;;;;;;;5.63;3.92;;;16.60;99.90;;;;;;4976052;28;20073;-76
2023/06/12 03:59:29;;;;;;;8.60;4.05;;;16.60;99.90;;;;;;4997955;28;20399;-76
2023/06/12 04:01:57;;;;;;;8.70;4.32;;;16.60;99.90;;;;;;4997985;28;20023;-76
2023/06/12 04:04:23;;;;;;;12.65;6.45;;;16.60;99.90;;;;;;4998604;28;20030;-75
2023/06/12 04:06:49;;;;;;;7.55;4.30;;;16.60;99.90;;;;;;4997930;28;20026;-76
2023/06/12 04:09:15;;;;;;;6.93;3.90;;;16.60;99.90;;;;;;4997819;28;20126;-76
2023/06/12 04:11:42;;;;;;;12.35;4.45;;;16.60;99.90;;;;;;4997720;28;20490;-76
2023/06/12 04:14:08;;;;;;;8.25;4.50;;;16.60;99.90;;;;;;4980740;28;20061;-76
2023/06/12 04:16:34;;;;;;;12.50;4.75;;;16.60;99.90;;;;;;4997602;28;20553;-76
2023/06/12 04:19:03;;;;;;;8.68;4.60;;;16.70;99.90;;;;;;4997557;28;20038;-76
2023/06/12 04:21:33;;;;;;;7.10;4.60;;;16.70;99.90;;;;;;4997795;28;20026;-76
2023/06/12 04:24:13;;;;;;;11.55;4.53;;;16.60;99.90;;;;;;4980278;28;20479;-77
2023/06/12 04:26:39;;;;;;;8.00;4.60;;;16.70;99.90;;;;;;4978864;28;20026;-77
2023/06/12 04:29:08;;;;;;;7.95;4.47;;;16.80;99.90;;;;;;4997609;28;20018;-77
2023/06/12 04:31:34;;;;;;;10.43;4.47;;;16.80;99.90;;;;;;4979813;28;20038;-77
2023/06/12 04:34:00;;;;;;;8.93;4.72;;;16.90;99.90;;;;;;4997183;28;20047;-76
2023/06/12 04:36:27;;;;;;;13.45;4.90;;;17.00;99.90;;;;;;4997221;28;20030;-77
2023/06/12 04:38:52;;;;;;;11.15;4.70;;;17.00;99.90;;;;;;4997556;28;20148;-76
2023/06/12 04:41:24;;;;;;;8.63;4.53;;;17.10;99.90;;;;;;4997146;28;20050;-76
2023/06/12 04:43:51;;;;;;;11.07;4.93;;;17.20;99.90;;;;;;5003807;28;20544;-76
2023/06/12 04:46:21;;;;;;;6.22;4.20;;;17.30;99.90;;;;;;5003986;28;20085;-76
2023/06/12 04:48:47;;;;;;;11.30;5.35;;;17.30;99.90;;;;;;4986622;28;20058;-76
2023/06/12 04:51:13;;;;;;;8.82;4.43;;;17.40;99.90;;;;;;5003645;28;20550;-76
2023/06/12 04:53:40;;;;;;;9.80;4.43;;;17.40;99.90;;;;;;5003879;28;20081;-76
2023/06/12 04:56:08;;;;;;;8.05;4.85;;;17.40;99.90;;;;;;5003295;28;20034;-76
2023/06/12 04:58:35;;;;;;;8.18;4.53;;;17.50;99.90;;;;;;5023622;28;20037;-75
2023/06/12 05:01:00;;;;;;;8.13;4.38;;;17.40;99.90;;;;;;5023087;28;20018;-76
2023/06/12 05:03:27;;;;;;;5.53;4.38;;;17.50;99.90;;;;;;5023320;28;20026;-76
2023/06/12 05:05:52;;;;;;;10.95;4.35;;;17.50;99.90;;;;;;5024618;28;20486;-75
2023/06/12 05:08:18;;;;;;;11.15;4.30;;;17.50;99.90;;;;;;5023524;28;20049;-76
2023/06/12 05:10:44;;;;;;;7.97;4.70;;;17.60;99.90;;;;;;5005244;28;20017;-76
2023/06/12 05:13:09;;;;;;;5.47;4.57;;;17.60;99.90;;;;;;5005865;28;20026;-76
2023/06/12 05:15:35;;;;;;;5.90;4.13;;;17.70;99.90;;;;;;5023149;28;20207;-76
2023/06/12 05:18:01;;;;;;;7.57;4.05;;;17.70;99.90;;;;;;5005131;28;20089;-76
2023/06/12 05:20:26;;;;;;;7.68;4.13;;;17.80;99.90;;;;;;5022919;28;20018;-75
2023/06/12 05:22:53;;;;;;;7.45;4.57;;;17.80;99.90;;;;;;5005414;28;20402;-75
2023/06/12 05:25:18;;;;;;;11.05;6.28;;;17.90;99.90;;;;;;5022747;28;20366;-76
2023/06/12 05:27:44;;;;;;;11.38;5.18;;;17.90;99.90;;;;;;5022093;28;20026;-76
2023/06/12 05:30:10;;;;;;;8.25;4.03;;;18.00;99.90;;;;;;5022901;28;20049;-75
2023/06/12 05:32:36;;;;;;;9.30;4.07;;;18.00;99.90;;;;;;5017150;28;20401;-76
2023/06/12 05:35:02;;;;;;;7.90;4.38;;;18.10;99.90;;;;;;5022958;28;20064;-76
2023/06/12 05:37:28;;;;;;;6.50;3.78;;;18.10;99.90;;;;;;5005183;28;20025;-76
2023/06/12 05:39:54;;;;;;;7.50;4.05;;;18.10;99.90;;;;;;5022871;28;20500;-76
2023/06/12 05:42:20;;;;;;;7.32;4.10;;;18.20;99.90;;;;;;5023080;28;20482;-76
2023/06/12 05:44:48;;;;;;;11.05;4.10;;;18.30;99.90;;;;;;5022781;28;20026;-76
2023/06/12 05:47:14;;;;;;;7.40;4.00;;;18.40;99.90;;;;;;5022881;28;20030;-76
2023/06/12 05:49:40;;;;;;;6.05;3.90;;;18.50;99.90;;;;;;5022759;28;20022;-75
2023/06/12 05:52:06;;;;;;;6.03;3.83;;;18.60;99.90;;;;;;5005318;28;20417;-75
2023/06/12 05:54:32;;;;;;;4.88;3.55;;;18.60;99.90;;;;;;5019370;28;20041;-75
2023/06/12 05:56:57;;;;;;;8.82;4.80;;;18.70;99.90;;;;;;5001762;28;20054;-76
2023/06/12 05:59:23;;;;;;;8.18;4.20;;;18.60;99.90;;;;;;5019617;28;20458;-76
2023/06/12 06:01:49;;;;;;;7.65;4.35;;;18.70;99.90;;;;;;5019724;28;20080;-76
2023/06/12 06:04:16;;;;;;;8.18;4.38;;;18.60;99.90;;;;;;5019424;28;20045;-76
2023/06/12 06:06:42;;;;;;;7.43;4.38;;;18.60;99.90;;;;;;5001731;28;20037;-76
2023/06/12 06:09:09;;;;;;;6.78;4.68;;;18.50;99.90;;;;;;5019362;28;20410;-76
2023/06/12 06:11:34;;;;;;;5.97;3.90;;;18.50;99.90;;;;;;5019324;28;20076;-75
2023/06/12 06:14:00;;;;;;;11.02;5.15;;;18.50;99.90;;;;;;5019738;28;20030;-76
2023/06/12 06:16:26;;;;;;;7.78;4.50;;;18.50;99.90;;;;;;5019276;28;20030;-76
2023/06/12 06:18:52;;;;;;;6.60;4.43;;;18.60;99.90;;;;;;5019033;28;20018;-76
2023/06/12 06:21:18;;;;;;;7.95;4.72;;;18.50;99.90;;;;;;5019342;28;20026;-76
2023/06/12 06:23:44;;;;;;;7.70;5.53;;;18.50;99.90;;;;;;5019274;28;20022;-76
2023/06/12 06:26:10;;;;;;;10.77;6.30;;;18.50;99.90;;;;;;5019146;28;20394;-77
2023/06/12 06:28:36;;;;;;;8.23;5.30;;;18.50;99.90;;;;;;5019083;28;20033;-75
2023/06/12 06:31:06;;;;;;;6.05;4.47;;;18.50;99.90;;;;;;5018946;28;20018;-76
2023/06/12 06:33:32;;;;;;;7.35;5.53;;;18.50;99.90;;;;;;5018626;28;20394;-78
2023/06/12 06:35:58;;;;;;;7.15;5.45;;;18.50;99.90;;;;;;5018782;28;20032;-78
2023/06/12 06:38:24;;;;;;;8.48;5.85;;;18.50;99.90;;;;;;5018996;28;20041;-78
2023/06/12 06:40:51;;;;;;;8.45;5.55;;;18.50;99.90;;;;;;5017586;28;20025;-78
2023/06/12 06:43:17;;;;;;;10.52;6.32;;;18.40;99.90;;;;;;5025206;28;20026;-78
2023/06/12 06:45:43;;;;;;;9.35;5.93;;;18.40;99.90;;;;;;5021873;28;20441;-79
2023/06/12 06:48:09;;;;;;;10.82;6.15;;;18.30;99.90;;;;;;5019060;28;20076;-78
2023/06/12 06:50:35;;;;;;;7.43;5.78;;;18.20;99.90;;;;;;5018799;28;20042;-78
2023/06/12 06:53:03;;;;;;;10.82;6.40;;;18.10;99.90;;;;;;5018706;28;20482;-79
2023/06/12 06:55:29;;;;;;;7.93;6.38;;;18.10;99.90;;;;;;5000540;28;20053;-79
2023/06/12 06:57:55;;;;;;;8.77;6.68;;;18.10;99.90;;;;;;5017897;28;20092;-78
2023/06/12 07:00:22;;;;;;;10.25;7.25;;;18.10;99.90;;;;;;5018554;28;20097;-78
2023/06/12 07:02:48;;;;;;;9.68;7.22;;;18.10;99.90;;;;;;5009333;28;20033;-79
2023/06/12 07:05:15;;;;;;;15.27;8.38;;;18.10;99.90;;;;;;5000556;28;20045;-81
2023/06/12 07:07:41;;;;;;;10.18;7.95;;;18.10;99.90;;;;;;5018284;28;20022;-83
2023/06/12 07:10:07;;;;;;;9.95;7.10;;;18.00;99.90;;;;;;5018160;28;20058;-84
2023/06/12 07:12:34;;;;;;;11.05;7.85;;;18.00;99.90;;;;;;5000389;28;20379;-84
2023/06/12 07:15:00;;;;;;;12.02;7.95;;;17.90;99.90;;;;;;5000726;28;20045;-83
2023/06/12 07:17:25;;;;;;;13.43;9.73;;;17.80;99.90;;;;;;5000638;28;20069;-83
2023/06/12 07:19:51;;;;;;;10.95;8.50;;;17.80;99.90;;;;;;5018406;28;20491;-83
2023/06/12 07:22:17;;;;;;;9.95;8.43;;;17.80;99.90;;;;;;5018124;28;20556;-83
2023/06/12 07:24:43;;;;;;;15.30;8.52;;;17.80;99.90;;;;;;5018260;28;20097;-83
2023/06/12 07:27:08;;;;;;;15.93;8.85;;;17.80;99.90;;;;;;5017980;28;20492;-83
2023/06/12 07:29:35;;;;;;;12.73;8.68;;;17.80;99.90;;;;;;5018261;28;20497;-83
2023/06/12 07:32:00;;;;;;;13.65;9.85;;;17.80;99.90;;;;;;5018404;28;20033;-83
2023/06/12 07:34:26;;;;;;;11.93;8.65;;;17.90;99.90;;;;;;4998758;28;20080;-84
2023/06/12 07:36:52;;;;;;;10.43;8.57;;;17.90;99.90;;;;;;5018014;28;20017;-84
2023/06/12 07:39:18;;;;;;;14.30;9.63;;;17.90;99.90;;;;;;5000269;28;20030;-83
2023/06/12 07:41:44;;;;;;;15.43;8.43;;;17.90;99.90;;;;;;5002176;28;20108;-83
2023/06/12 07:44:13;;;;;;;14.07;9.30;;;18.00;99.90;;;;;;5017783;28;20053;-84
2023/06/12 07:46:41;;;;;;;11.52;9.27;;;18.10;99.90;;;;;;5000268;28;20029;-83
2023/06/12 07:49:07;;;;;;;11.45;9.00;;;18.20;99.90;;;;;;4999711;28;20026;-83
2023/06/12 07:51:33;;;;;;;16.05;9.25;;;18.30;99.90;;;;;;5000438;28;20032;-83
2023/06/12 07:53:58;;;;;;;14.10;9.32;;;18.30;99.90;;;;;;5017439;28;20115;-85
2023/06/12 07:56:24;;;;;;;12.32;9.77;;;18.40;99.90;;;;;;5017110;28;20014;-86
2023/06/12 07:58:51;;;;;;;12.98;9.68;;;18.40;99.90;;;;;;4999763;28;20037;-85
2023/06/12 08:01:17;;;;;;;10.77;8.15;;;18.40;99.90;;;;;;5017683;28;20022;-85
2023/06/12 08:03:43;;;;;;;14.05;8.50;;;18.40;99.90;;;;;;5017809;28;20017;-84
2023/06/12 08:06:10;;;;;;;11.45;8.00;;;18.50;99.90;;;;;;5001427;28;20022;-85
2023/06/12 08:08:46;;;;;;;10.82;7.70;;;18.60;99.90;;;;;;5017254;28;20030;-83
2023/06/12 08:11:13;;;;;;;14.93;8.05;;;18.60;99.90;;;;;;4999760;28;20057;-83
2023/06/12 08:13:40;;;;;;;12.77;8.90;;;18.70;99.90;;;;;;4999383;28;20044;-83
2023/06/12 08:16:07;;;;;;;10.05;8.38;;;18.80;99.90;;;;;;5002279;28;20052;-83
2023/06/12 08:18:32;;;;;;;11.27;7.88;;;18.80;99.90;;;;;;4999330;28;20022;-83
2023/06/12 08:20:58;;;;;;;13.38;8.57;;;18.80;99.90;;;;;;5017409;28;20029;-82
2023/06/12 08:23:24;;;;;;;10.63;8.50;;;18.80;99.90;;;;;;5017216;28;20029;-81
2023/06/12 08:25:50;;;;;;;9.90;7.93;;;18.80;99.90;;;;;;4999339;28;20033;-82
2023/06/12 08:28:16;;;;;;;11.05;7.88;;;18.90;99.90;;;;;;5016893;28;20516;-82
2023/06/12 08:30:42;;;;;;;9.45;7.10;;;19.10;99.90;;;;;;5017177;28;20028;-82
2023/06/12 08:33:08;;;;;;;10.10;7.57;;;19.10;99.90;;;;;;5015000;28;20034;-80
2023/06/12 08:35:35;;;;;;;8.38;6.82;;;19.20;99.90;;;;;;5017057;28;20038;-82
2023/06/12 08:38:01;;;;;;;8.93;7.15;;;19.30;99.90;;;;;;4999006;28;20026;-81
2023/06/12 08:40:27;;;;;;;9.35;7.63;;;19.40;99.90;;;;;;5016879;28;20548;-80
2023/06/12 08:42:52;;;;;;;8.63;7.38;;;19.40;99.90;;;;;;5016844;28;20022;-80
2023/06/12 08:45:25;;;;;;;9.40;7.63;;;19.40;99.90;;;;;;5002874;28;20033;-81
2023/06/12 08:47:52;;;;;;;9.00;7.38;;;19.40;99.90;;;;;;5016695;28;20482;-83
2023/06/12 08:50:18;;;;;;;9.13;8.18;;;19.60;99.90;;;;;;5016820;28;20038;-84
2023/06/12 08:52:49;;;;;;;12.13;7.43;;;19.60;99.90;;;;;;5016625;28;20026;-84
2023/06/12 08:55:15;;;;;;;;;;;19.60;99.90;;;;;;5017161;28;20026;-85
2023/06/12 08:57:45;;;;;;;9.88;7.72;;;19.50;99.90;;;;;;5016602;28;19926;-86
2023/06/12 09:00:13;;;;;;;12.23;8.23;;;19.60;99.90;;;;;;5017120;28;20018;-86
2023/06/12 09:02:45;;;;;;;9.32;6.88;;;19.70;99.90;;;;;;5017130;28;20053;-84
2023/06/12 09:05:16;;;;;;;7.85;6.28;;;19.80;99.90;;;;;;5009675;28;20095;-84
2023/06/12 09:07:44;;;;;;;9.10;6.63;;;19.80;99.90;;;;;;4996981;28;20033;-84
2023/06/12 09:10:10;;;;;;;10.95;6.88;;;19.60;99.90;;;;;;4998939;28;20061;-85
2023/06/12 09:12:35;;;;;;;9.40;6.63;;;19.70;99.90;;;;;;5016600;28;20026;-85
2023/06/12 09:15:01;;;;;;;9.02;7.25;;;19.70;99.90;;;;;;4998944;28;20028;-85
2023/06/12 09:17:28;;;;;;;14.57;7.30;;;19.90;99.90;;;;;;4998596;28;20030;-85
2023/06/12 09:19:54;;;;;;;7.90;7.07;;;20.00;99.90;;;;;;5016814;28;20033;-85
2023/06/12 09:22:23;;;;;;;10.43;7.00;;;20.10;99.90;;;;;;5016571;28;20416;-85
2023/06/12 09:24:49;;;;;;;13.10;6.47;;;20.10;99.90;;;;;;5016457;28;20396;-85
2023/06/12 09:27:20;;;;;;;9.27;6.05;;;20.20;99.90;;;;;;5016346;28;20025;-85
2023/06/12 09:29:45;;;;;;;;;;;20.20;99.90;;;;;;5020143;28;20117;-85
2023/06/12 09:32:13;;;;;;;8.10;6.53;;;20.20;99.90;;;;;;5019967;28;19976;-85
2023/06/12 09:34:48;;;;;;;6.70;5.82;;;20.30;99.90;;;;;;5019171;28;20415;-85
2023/06/12 09:37:15;;;;;;;6.68;5.38;;;20.20;99.90;;;;;;5020166;28;20025;-84
2023/06/12 09:39:42;;;;;;;9.63;6.95;;;20.40;99.90;;;;;;5020085;28;20026;-85
2023/06/12 09:42:08;;;;;;;6.57;5.95;;;20.40;99.90;;;;;;5011832;28;20028;-85
2023/06/12 09:44:34;;;;;;;7.43;5.38;;;20.50;99.90;;;;;;5020081;28;20026;-85
2023/06/12 09:47:01;;;;;;;9.77;6.47;;;20.60;99.90;;;;;;5019664;28;20120;-85
2023/06/12 09:49:27;;;;;;;8.35;5.65;;;20.70;99.90;;;;;;5020218;28;20026;-85
2023/06/12 09:51:54;;;;;;;7.57;6.10;;;20.90;99.90;;;;;;5020006;28;20082;-86
2023/06/12 09:54:22;;;;;;;7.40;5.60;;;20.80;99.90;;;;;;5019973;28;20026;-85
2023/06/12 09:56:51;;;;;;;9.60;6.57;;;20.90;99.90;;;;;;5019545;28;20050;-84
2023/06/12 09:59:18;;;;;;;9.45;6.63;;;20.90;99.90;;;;;;5019677;28;20057;-84
2023/06/12 10:01:59;;;;;;;8.73;7.28;;;20.90;99.90;;;;;;5019625;28;20101;-84
2023/06/12 10:04:36;;;;;;;8.15;6.18;;;20.80;99.90;;;;;;5019776;28;20026;-84
2023/06/12 10:07:11;;;;;;;10.60;7.25;;;20.80;99.90;;;;;;5019429;28;20026;-83
2023/06/12 10:09:38;;;;;;;10.18;7.18;;;20.80;99.90;;;;;;5019578;28;20425;-83
2023/06/12 10:12:05;;;;;;;9.50;7.15;;;20.60;99.90;;;;;;5019382;28;20494;-83
2023/06/12 10:14:31;;;;;;;10.05;7.53;;;20.60;99.90;;;;;;5019403;28;20030;-83
2023/06/12 10:16:59;;;;;;;9.40;6.78;;;20.60;99.90;;;;;;5019076;28;20037;-82
2023/06/12 10:19:25;;;;;;;8.95;7.95;;;20.60;99.90;;;;;;5019154;28;20022;-82
2023/06/12 10:21:54;;;;;;;11.25;7.45;;;20.60;99.90;;;;;;5001516;28;20026;-83
2023/06/12 10:24:23;;;;;;;10.13;6.80;;;20.50;99.90;;;;;;5019261;28;20030;-82
2023/06/12 10:26:51;;;;;;;9.35;7.03;;;20.40;99.90;;;;;;5019011;28;20026;-82
2023/06/12 10:29:30;;;;;;;11.60;6.90;;;20.50;99.90;;;;;;5019529;28;20037;-82
2023/06/12 10:32:23;;;;;;;9.90;7.55;;;20.70;99.90;;;;;;5018833;28;20030;-82
2023/06/12 10:34:52;;;;;;;9.60;7.00;;;20.70;99.90;;;;;;5014148;28;20104;-83
2023/06/12 10:37:22;;;;;;;9.55;6.85;;;20.80;99.90;;;;;;5019117;28;20080;-83
2023/06/12 10:39:59;;;;;;;12.60;6.85;;;20.90;99.90;;;;;;5018234;28;20052;-83
2023/06/12 10:42:55;;;;;;;9.48;6.95;;;20.80;99.90;;;;;;5019058;28;20117;-83
2023/06/12 10:45:29;;;;;;;8.73;6.50;;;20.60;99.90;;;;;;5002102;28;20026;-83
2023/06/12 10:48:07;;;;;;;11.15;5.93;;;20.60;99.90;;;;;;5017764;28;20017;-83
2023/06/12 10:50:43;;;;;;;8.93;6.28;;;20.70;99.90;;;;;;5018992;28;20063;-84
2023/06/12 10:53:13;;;;;;;9.98;7.57;;;20.70;99.90;;;;;;4998032;28;20627;-84
2023/06/12 10:55:40;;;;;;;12.30;7.20;;;20.80;99.90;;;;;;4997462;28;20026;-83
2023/06/12 10:58:23;;;;;;;13.70;8.13;;;20.90;99.90;;;;;;5018572;28;20038;-84
2023/06/12 11:00:51;;;;;;;13.93;9.23;;;21.00;99.90;;;;;;5000998;28;20116;-84
2023/06/12 11:03:26;;;;;;;9.05;6.75;;;21.10;99.90;;;;;;5018229;28;20050;-82
2023/06/12 11:06:08;;;;;;;11.40;7.35;;;21.30;99.90;;;;;;5018753;28;20017;-83
2023/06/12 11:08:34;;;;;;;10.02;7.38;;;21.40;99.90;;;;;;5018402;28;20098;-83
2023/06/12 11:11:09;;;;;;;8.63;6.60;;;21.80;99.90;;;;;;5000875;28;20061;-82
2023/06/12 11:13:38;;;;;;;9.73;6.35;;;22.10;99.90;;;;;;5014667;28;20030;-82
2023/06/12 11:16:04;;;;;;;9.30;7.18;;;22.50;99.90;;;;;;4997202;28;20030;-82
2023/06/12 11:18:30;;;;;;;6.82;6.10;;;22.80;99.90;;;;;;5014800;28;20017;-82
2023/06/12 11:20:57;;;;;;;8.40;6.93;;;23.10;99.90;;;;;;5016794;28;20110;-82
2023/06/12 11:23:27;;;;;;;9.75;7.10;;;23.30;99.90;;;;;;5018179;28;20576;-81
2023/06/12 11:25:55;;;;;;;8.98;6.57;;;23.20;99.90;;;;;;5018031;28;20026;-81
2023/06/12 11:28:25;;;;;;;8.25;6.65;;;23.20;99.90;;;;;;5017910;28;20418;-81
2023/06/12 11:30:53;;;;;;;8.43;6.53;;;22.90;99.90;;;;;;5001495;28;20037;-81
2023/06/12 11:33:20;;;;;;;11.43;6.45;;;22.70;99.90;;;;;;5017516;28;20022;-81
2023/06/12 11:35:47;;;;;;;6.47;5.78;;;22.90;99.90;;;;;;5017760;28;20072;-80
2023/06/12 11:38:21;;;;;;;14.75;7.13;;;22.90;99.90;;;;;;5010844;28;20052;-80
2023/06/12 11:40:48;;;;;;;8.95;6.22;;;22.80;99.90;;;;;;5017826;28;20032;-80
2023/06/12 11:43:16;;;;;;;9.00;6.90;;;22.80;99.90;;;;;;5017555;28;20010;-80
2023/06/12 11:45:42;;;;;;;12.02;7.68;;;22.80;99.90;;;;;;5017830;28;20053;-80
2023/06/12 11:48:14;;;;;;;9.98;7.35;;;22.80;99.90;;;;;;5017221;28;20045;-79
2023/06/12 11:50:41;;;;;;;13.40;8.52;;;22.90;99.90;;;;;;5017724;28;20531;-79
2023/06/12 11:53:08;;;;;;;9.93;6.53;;;23.00;99.90;;;;;;5016136;28;20026;-80
2023/06/12 11:55:33;;;;;;;12.45;7.07;;;23.10;99.90;;;;;;5017367;28;20375;-79
2023/06/12 11:58:01;;;;;;;14.70;7.22;;;23.00;99.90;;;;;;5017425;28;20068;-79
2023/06/12 12:00:30;;;;;;;10.57;7.55;;;23.10;99.90;;;;;;5017370;28;20014;-79
2023/06/12 12:03:01;;;;;;;9.57;6.85;;;23.00;99.90;;;;;;5017413;28;20101;-80
2023/06/12 12:05:31;;;;;;;11.10;7.28;;;22.90;99.90;;;;;;5027594;28;20026;-79
2023/06/12 12:07:57;;;;;;;;;;;23.00;99.90;;;;;;5018030;28;20026;-79
2023/06/12 12:10:24;;;;;;;10.05;7.47;;;23.10;99.90;;;;;;5016991;28;19951;-79
2023/06/12 12:12:51;;;;;;;12.23;7.43;;;23.10;99.90;;;;;;5017164;28;20033;-79
2023/06/12 12:15:21;;;;;;;10.55;7.35;;;23.30;99.90;;;;;;5017297;28;20105;-79
2023/06/12 12:17:48;;;;;;;8.65;7.30;;;23.40;99.90;;;;;;5016845;28;20029;-79
2023/06/12 12:20:22;;;;;;;9.90;7.00;;;23.60;99.90;;;;;;5015859;28;20520;-79
2023/06/12 12:22:50;;;;;;;14.68;7.95;;;23.80;99.90;;;;;;5017349;28;20025;-79
2023/06/12 12:25:17;;;;;;;10.77;7.95;;;23.80;99.90;;;;;;4996996;28;20125;-79
2023/06/12 12:27:45;;;;;;;12.48;7.35;;;23.70;99.90;;;;;;5017327;28;20037;-79
2023/06/12 12:30:14;;;;;;;8.88;7.97;;;24.00;99.90;;;;;;5017160;28;20478;-78
2023/06/12 12:32:41;;;;;;;12.15;7.60;;;24.20;99.90;;;;;;5016740;28;20132;-78
2023/06/12 12:35:07;;;;;;;11.82;8.00;;;24.00;99.90;;;;;;5016842;28;20046;-78
2023/06/12 12:37:33;;;;;;;11.02;8.40;;;23.90;99.90;;;;;;5016885;28;20564;-78
2023/06/12 12:39:58;;;;;;;9.55;7.93;;;23.90;99.90;;;;;;5016714;28;20021;-78
2023/06/12 12:42:25;;;;;;;11.70;7.95;;;24.00;99.90;;;;;;5017109;28;20029;-79
2023/06/12 12:44:51;;;;;;;12.15;7.90;;;24.30;99.90;;;;;;5016738;28;20049;-78